• Join FlightAware (Why Join?)
  • Login
  • US Flag 
06:21PM EDT


 

Airport Tracker/Info


-or-


 

Live Flight TrackerFlight Track Log ✈ AWI4085 ✈ 10-Apr-2012 ✈ KORF - KPHL

Flight Track Log - Related Links

Times and Time Zones

All times are in EDT time to prevent confusion due to time zone crossing. See the AWI4085 flight status page for this flight to view local times or setup timezone preferences in your user account.

Time Position Orientation Groundspeed Altitude Reporting Facility
EDT Latitude Longitude Course Direction KTS MPH feet Rate Location/Type
02:52PM 36.9158 -76.1945 206° Southwest  Level FlightAware Approximate
02:52PM 36.8867 -76.2125 223° Southwest 161 185 800  Level Washington Center
02:53PM 36.8489 -76.2564 308° West 192 221 3,900 2,280 Climbing Washington Center
02:54PM 36.8861 -76.3164 12° North 255 293 5,400 1,260 Climbing Washington Center
02:56PM 36.9886 -76.2886 59° Northeast 298 343 6,900 720 Climbing Washington Center
02:56PM 37.0158 -76.2317 67° East 306 352 6,900 1,500 Level Washington Center
02:59PM 37.1108 -75.9539 69° East 317 365 12,300 1,800 Climbing Washington Center
03:00PM 37.1447 -75.8419 63° Northeast 317 365 14,100 1,920 Climbing Washington Center
03:01PM 37.1906 -75.7300 17° North 340 391 16,300 2,100 Climbing Washington Center
03:02PM 37.2764 -75.6964 North 306 352 18,400 1,320 Climbing Washington Center
03:03PM 37.3700 -75.6858 North 312 359 19,000 300 Climbing Washington Center
03:04PM 37.4661 -75.6703 North 322 371 19,000  Level Washington Center
03:05PM 37.5600 -75.6547 North 332 382 19,000  Level Washington Center
03:06PM 37.6539 -75.6392 11° North 332 382 19,000  Level Washington Center
03:07PM 37.7497 -75.6156 22° Northeast 337 388 19,000  Level Washington Center
03:08PM 37.8458 -75.5656 26° Northeast 343 395 19,000  Level Washington Center
03:09PM 37.9353 -75.5103 23° Northeast 350 403 19,000  Level Washington Center
03:10PM 38.0292 -75.4600 27° Northeast 356 410 19,000  Level Washington Center
03:11PM 38.1186 -75.4017 23° Northeast 356 410 19,000  Level Washington Center
03:12PM 38.2125 -75.3514 25° Northeast 361 415 19,000  Level Washington Center
03:13PM 38.3042 -75.2981 27° Northeast 356 410 19,000 -60 Level Washington Center
03:14PM 38.3997 -75.2367 26° Northeast 356 410 18,900 -180 Descending Washington Center
03:15PM 38.4914 -75.1806 25° Northeast 356 410 18,700 -1,260 Descending Washington Center
03:16PM 38.5789 -75.1294 24° Northeast 356 410 16,500 -1,920 Descending Washington Center
03:17PM 38.6642 -75.0811 15° North 346 398 15,000 -780 Descending Washington Center
03:18PM 38.7536 -75.0514 North 334 384 15,000 -420 Level Washington Center
03:19PM 38.8472 -75.0453 North 328 377 14,200 -960 Descending Washington Center
03:20PM 38.9411 -75.0339 North 333 383 13,200 -1,020 Descending Washington Center
03:21PM 39.0308 -75.0253 North 328 377 12,200 -1,080 Descending Washington Center
03:22PM 39.1225 -75.0164 North 328 377 11,100 -1,200 Descending Washington Center
03:24PM 39.2736 -74.9950 North 273 314 9,000 -1,200 Descending FAA TRACON SMA TRACON (SMA)
03:25PM 39.3239 -74.9908 North 282 325 8,200 -780 Descending FAA TRACON SMA TRACON (SMA)
03:25PM 39.3775 -74.9853 North 279 321 8,000 -180 Descending FAA TRACON SMA TRACON (SMA)
03:26PM 39.4297 -74.9789 North 278 320 8,000  Level FAA TRACON SMA TRACON (SMA)
03:27PM 39.4783 -74.9736 North 281 323 8,000 -300 Level FAA TRACON SMA TRACON (SMA)
03:27PM 39.5353 -74.9672 North 281 323 7,600 -900 Descending FAA TRACON SMA TRACON (SMA)
03:28PM 39.5856 -74.9614 North 285 328 6,800 -1,080 Descending FAA TRACON SMA TRACON (SMA)
03:29PM 39.6353 -74.9575 12° North 277 319 6,200 -600 Descending FAA TRACON SMA TRACON (SMA)
03:29PM 39.6872 -74.9431 13° North 278 320 6,000 -180 Descending FAA TRACON SMA TRACON (SMA)
03:30PM 39.7372 -74.9275 13° North 274 315 6,000 -420 Level FAA TRACON SMA TRACON (SMA)
03:31PM 39.7839 -74.9131 North 271 312 5,500 -1,140 Descending FAA TRACON SMA TRACON (SMA)
03:31PM 39.8333 -74.9075 355° North 249 287 4,500 -1,200 Descending FAA TRACON SMA TRACON (SMA)
03:32PM 39.8789 -74.9125 321° Northwest 227 261 3,900 -780 Descending FAA TRACON SMA TRACON (SMA)
03:33PM 39.9014 -74.9361 291° West 166 191 3,500 -720 Descending FAA TRACON SMA TRACON (SMA)
03:33PM 39.9125 -74.9731 280° West 157 181 3,000 -420 Descending FAA TRACON SMA TRACON (SMA)
03:34PM 39.9175 -75.0097 280° West 152 175 3,000  Level FAA TRACON SMA TRACON (SMA)